sensor_id;sensor_type;location;lat;lon;timestamp;P1;durP1;ratioP1;P2;durP2;ratioP2
81807;SDS011;71241;13.676;100.700;2023-12-04T00:01:49;9.35;;;5.53;;
81807;SDS011;71241;13.676;100.700;2023-12-04T00:04:19;6.88;;;5.53;;
81807;SDS011;71241;13.676;100.700;2023-12-04T00:06:50;7.88;;;4.60;;
81807;SDS011;71241;13.676;100.700;2023-12-04T00:09:23;6.20;;;4.75;;
81807;SDS011;71241;13.676;100.700;2023-12-04T00:11:54;6.65;;;5.65;;
81807;SDS011;71241;13.676;100.700;2023-12-04T00:14:24;8.20;;;5.68;;
81807;SDS011;71241;13.676;100.700;2023-12-04T00:16:55;6.57;;;5.22;;
81807;SDS011;71241;13.676;100.700;2023-12-04T00:19:25;8.48;;;5.70;;
81807;SDS011;71241;13.676;100.700;2023-12-04T00:21:57;7.70;;;5.50;;
81807;SDS011;71241;13.676;100.700;2023-12-04T00:24:30;9.23;;;6.20;;
81807;SDS011;71241;13.676;100.700;2023-12-04T00:27:00;5.93;;;5.13;;
81807;SDS011;71241;13.676;100.700;2023-12-04T00:29:31;6.63;;;5.38;;
81807;SDS011;71241;13.676;100.700;2023-12-04T00:32:01;7.60;;;5.82;;
81807;SDS011;71241;13.676;100.700;2023-12-04T00:34:32;16.50;;;12.52;;
81807;SDS011;71241;13.676;100.700;2023-12-04T00:37:03;7.20;;;5.57;;
81807;SDS011;71241;13.676;100.700;2023-12-04T00:39:36;7.35;;;5.40;;
81807;SDS011;71241;13.676;100.700;2023-12-04T00:42:07;7.13;;;5.57;;
81807;SDS011;71241;13.676;100.700;2023-12-04T00:44:37;9.40;;;7.07;;
81807;SDS011;71241;13.676;100.700;2023-12-04T00:47:08;7.47;;;5.68;;
81807;SDS011;71241;13.676;100.700;2023-12-04T00:49:38;6.10;;;5.50;;
81807;SDS011;71241;13.676;100.700;2023-12-04T00:52:09;9.63;;;5.53;;
81807;SDS011;71241;13.676;100.700;2023-12-04T00:54:44;8.48;;;6.20;;
81807;SDS011;71241;13.676;100.700;2023-12-04T00:57:17;6.50;;;5.50;;
81807;SDS011;71241;13.676;100.700;2023-12-04T00:59:48;8.35;;;5.88;;
81807;SDS011;71241;13.676;100.700;2023-12-04T01:02:18;10.52;;;6.05;;
81807;SDS011;71241;13.676;100.700;2023-12-04T01:04:49;10.38;;;9.55;;
81807;SDS011;71241;13.676;100.700;2023-12-04T01:07:19;10.05;;;6.07;;
81807;SDS011;71241;13.676;100.700;2023-12-04T01:09:51;12.23;;;11.13;;
81807;SDS011;71241;13.676;100.700;2023-12-04T01:12:22;13.73;;;9.93;;
81807;SDS011;71241;13.676;100.700;2023-12-04T01:14:53;14.82;;;11.65;;
81807;SDS011;71241;13.676;100.700;2023-12-04T01:17:24;7.88;;;5.85;;
81807;SDS011;71241;13.676;100.700;2023-12-04T01:19:54;10.32;;;9.25;;
81807;SDS011;71241;13.676;100.700;2023-12-04T01:22:26;8.85;;;5.95;;
81807;SDS011;71241;13.676;100.700;2023-12-04T01:24:58;8.43;;;6.88;;
81807;SDS011;71241;13.676;100.700;2023-12-04T01:27:29;10.65;;;6.47;;
81807;SDS011;71241;13.676;100.700;2023-12-04T01:30:00;10.98;;;6.07;;
81807;SDS011;71241;13.676;100.700;2023-12-04T01:32:30;9.73;;;6.32;;
81807;SDS011;71241;13.676;100.700;2023-12-04T01:35:01;9.57;;;6.13;;
81807;SDS011;71241;13.676;100.700;2023-12-04T01:37:31;12.35;;;7.97;;
81807;SDS011;71241;13.676;100.700;2023-12-04T01:40:05;10.02;;;6.68;;
81807;SDS011;71241;13.676;100.700;2023-12-04T01:42:36;12.65;;;7.15;;
81807;SDS011;71241;13.676;100.700;2023-12-04T01:45:07;9.52;;;6.05;;
81807;SDS011;71241;13.676;100.700;2023-12-04T01:47:39;13.80;;;7.05;;
81807;SDS011;71241;13.676;100.700;2023-12-04T01:50:11;11.52;;;9.68;;
81807;SDS011;71241;13.676;100.700;2023-12-04T01:52:42;12.93;;;9.98;;
81807;SDS011;71241;13.676;100.700;2023-12-04T01:55:15;11.60;;;9.95;;
81807;SDS011;71241;13.676;100.700;2023-12-04T01:57:47;11.70;;;9.75;;
81807;SDS011;71241;13.676;100.700;2023-12-04T02:00:18;12.13;;;6.68;;
81807;SDS011;71241;13.676;100.700;2023-12-04T02:02:50;9.88;;;7.25;;
81807;SDS011;71241;13.676;100.700;2023-12-04T02:05:20;9.50;;;5.68;;
81807;SDS011;71241;13.676;100.700;2023-12-04T02:07:51;9.13;;;5.10;;
81807;SDS011;71241;13.676;100.700;2023-12-04T02:10:24;10.10;;;5.82;;
81807;SDS011;71241;13.676;100.700;2023-12-04T02:12:55;9.65;;;7.05;;
81807;SDS011;71241;13.676;100.700;2023-12-04T02:15:26;10.18;;;6.95;;
81807;SDS011;71241;13.676;100.700;2023-12-04T02:17:57;10.98;;;6.40;;
81807;SDS011;71241;13.676;100.700;2023-12-04T02:20:31;7.75;;;6.30;;
81807;SDS011;71241;13.676;100.700;2023-12-04T02:23:02;6.57;;;5.90;;
81807;SDS011;71241;13.676;100.700;2023-12-04T02:25:34;9.90;;;6.35;;
81807;SDS011;71241;13.676;100.700;2023-12-04T02:28:05;6.72;;;5.95;;
81807;SDS011;71241;13.676;100.700;2023-12-04T02:30:37;8.60;;;4.97;;
81807;SDS011;71241;13.676;100.700;2023-12-04T02:33:09;7.78;;;5.18;;
81807;SDS011;71241;13.676;100.700;2023-12-04T02:35:41;8.50;;;4.97;;
81807;SDS011;71241;13.676;100.700;2023-12-04T02:38:13;6.30;;;4.85;;
81807;SDS011;71241;13.676;100.700;2023-12-04T02:40:45;6.40;;;4.78;;
81807;SDS011;71241;13.676;100.700;2023-12-04T02:43:16;6.05;;;4.20;;
81807;SDS011;71241;13.676;100.700;2023-12-04T02:45:47;9.13;;;5.25;;
81807;SDS011;71241;13.676;100.700;2023-12-04T02:48:17;7.07;;;4.68;;
81807;SDS011;71241;13.676;100.700;2023-12-04T02:50:48;6.30;;;5.25;;
81807;SDS011;71241;13.676;100.700;2023-12-04T02:53:18;5.95;;;5.35;;
81807;SDS011;71241;13.676;100.700;2023-12-04T02:55:50;6.10;;;4.65;;
81807;SDS011;71241;13.676;100.700;2023-12-04T02:58:21;8.15;;;6.72;;
81807;SDS011;71241;13.676;100.700;2023-12-04T03:00:51;10.00;;;5.40;;
81807;SDS011;71241;13.676;100.700;2023-12-04T03:03:22;7.35;;;4.40;;
81807;SDS011;71241;13.676;100.700;2023-12-04T03:05:53;4.93;;;4.10;;
81807;SDS011;71241;13.676;100.700;2023-12-04T03:08:23;7.15;;;5.60;;
81807;SDS011;71241;13.676;100.700;2023-12-04T03:10:56;7.13;;;4.85;;
81807;SDS011;71241;13.676;100.700;2023-12-04T03:13:26;5.75;;;4.95;;
81807;SDS011;71241;13.676;100.700;2023-12-04T03:15:57;8.48;;;5.85;;
81807;SDS011;71241;13.676;100.700;2023-12-04T03:18:28;6.43;;;4.45;;
81807;SDS011;71241;13.676;100.700;2023-12-04T03:20:59;6.70;;;4.82;;
81807;SDS011;71241;13.676;100.700;2023-12-04T03:23:29;6.82;;;4.80;;
81807;SDS011;71241;13.676;100.700;2023-12-04T03:26:02;5.43;;;4.43;;
81807;SDS011;71241;13.676;100.700;2023-12-04T03:31:02;9.07;;;5.00;;
81807;SDS011;71241;13.676;100.700;2023-12-04T03:33:33;5.07;;;4.45;;
81807;SDS011;71241;13.676;100.700;2023-12-04T03:36:04;5.53;;;4.85;;
81807;SDS011;71241;13.676;100.700;2023-12-04T03:38:37;9.07;;;4.82;;
81807;SDS011;71241;13.676;100.700;2023-12-04T03:41:14;8.10;;;5.57;;
81807;SDS011;71241;13.676;100.700;2023-12-04T03:43:45;5.70;;;5.07;;
81807;SDS011;71241;13.676;100.700;2023-12-04T03:46:16;6.30;;;4.88;;
81807;SDS011;71241;13.676;100.700;2023-12-04T03:48:48;7.78;;;4.75;;
81807;SDS011;71241;13.676;100.700;2023-12-04T03:51:19;7.63;;;4.65;;
81807;SDS011;71241;13.676;100.700;2023-12-04T03:53:49;7.15;;;6.50;;
81807;SDS011;71241;13.676;100.700;2023-12-04T03:56:21;8.07;;;5.45;;
81807;SDS011;71241;13.676;100.700;2023-12-04T03:58:52;8.65;;;4.97;;
81807;SDS011;71241;13.676;100.700;2023-12-04T04:01:22;5.90;;;4.65;;
81807;SDS011;71241;13.676;100.700;2023-12-04T04:03:53;6.20;;;5.50;;
81807;SDS011;71241;13.676;100.700;2023-12-04T04:06:23;6.47;;;5.05;;
81807;SDS011;71241;13.676;100.700;2023-12-04T04:08:54;6.30;;;5.30;;
81807;SDS011;71241;13.676;100.700;2023-12-04T04:11:26;6.32;;;4.72;;
81807;SDS011;71241;13.676;100.700;2023-12-04T04:13:57;5.60;;;4.47;;
81807;SDS011;71241;13.676;100.700;2023-12-04T04:16:28;8.23;;;4.80;;
81807;SDS011;71241;13.676;100.700;2023-12-04T04:18:58;5.43;;;4.57;;
81807;SDS011;71241;13.676;100.700;2023-12-04T04:21:29;6.97;;;4.45;;
81807;SDS011;71241;13.676;100.700;2023-12-04T04:23:59;7.40;;;5.10;;
81807;SDS011;71241;13.676;100.700;2023-12-04T04:26:32;5.25;;;4.57;;
81807;SDS011;71241;13.676;100.700;2023-12-04T04:29:02;7.28;;;4.60;;
81807;SDS011;71241;13.676;100.700;2023-12-04T04:31:33;7.25;;;4.72;;
81807;SDS011;71241;13.676;100.700;2023-12-04T04:34:03;8.75;;;4.72;;
81807;SDS011;71241;13.676;100.700;2023-12-04T04:36:34;9.98;;;5.30;;
81807;SDS011;71241;13.676;100.700;2023-12-04T04:39:05;6.70;;;4.78;;
81807;SDS011;71241;13.676;100.700;2023-12-04T04:41:37;5.88;;;4.75;;
81807;SDS011;71241;13.676;100.700;2023-12-04T04:44:08;8.27;;;5.93;;
81807;SDS011;71241;13.676;100.700;2023-12-04T04:46:39;9.32;;;6.57;;
81807;SDS011;71241;13.676;100.700;2023-12-04T04:49:09;7.75;;;6.68;;
81807;SDS011;71241;13.676;100.700;2023-12-04T04:51:40;6.07;;;5.47;;
81807;SDS011;71241;13.676;100.700;2023-12-04T04:54:11;5.45;;;4.55;;
81807;SDS011;71241;13.676;100.700;2023-12-04T04:56:43;5.97;;;5.32;;
81807;SDS011;71241;13.676;100.700;2023-12-04T04:59:14;5.40;;;4.60;;
81807;SDS011;71241;13.676;100.700;2023-12-04T05:01:44;5.18;;;4.68;;
81807;SDS011;71241;13.676;100.700;2023-12-04T05:04:15;6.32;;;4.72;;
81807;SDS011;71241;13.676;100.700;2023-12-04T05:06:46;4.78;;;4.13;;
81807;SDS011;71241;13.676;100.700;2023-12-04T05:09:16;5.28;;;4.20;;
81807;SDS011;71241;13.676;100.700;2023-12-04T05:11:49;5.45;;;4.20;;
81807;SDS011;71241;13.676;100.700;2023-12-04T05:14:19;5.10;;;4.60;;
81807;SDS011;71241;13.676;100.700;2023-12-04T05:16:50;6.63;;;5.20;;
81807;SDS011;71241;13.676;100.700;2023-12-04T05:19:20;6.32;;;4.50;;
81807;SDS011;71241;13.676;100.700;2023-12-04T05:21:51;10.13;;;9.38;;
81807;SDS011;71241;13.676;100.700;2023-12-04T05:24:22;7.15;;;6.55;;
81807;SDS011;71241;13.676;100.700;2023-12-04T05:26:54;6.03;;;4.28;;
81807;SDS011;71241;13.676;100.700;2023-12-04T05:29:25;4.65;;;3.97;;
81807;SDS011;71241;13.676;100.700;2023-12-04T05:31:56;6.13;;;5.50;;
81807;SDS011;71241;13.676;100.700;2023-12-04T05:34:27;4.22;;;3.90;;
81807;SDS011;71241;13.676;100.700;2023-12-04T05:36:57;6.03;;;4.15;;
81807;SDS011;71241;13.676;100.700;2023-12-04T05:39:29;4.78;;;4.25;;
81807;SDS011;71241;13.676;100.700;2023-12-04T05:42:02;4.93;;;4.22;;
81807;SDS011;71241;13.676;100.700;2023-12-04T05:47:03;7.82;;;7.32;;
81807;SDS011;71241;13.676;100.700;2023-12-04T05:49:34;5.15;;;3.78;;
81807;SDS011;71241;13.676;100.700;2023-12-04T05:52:04;5.20;;;3.60;;
81807;SDS011;71241;13.676;100.700;2023-12-04T05:54:35;6.22;;;5.57;;
81807;SDS011;71241;13.676;100.700;2023-12-04T05:57:07;4.53;;;4.13;;
81807;SDS011;71241;13.676;100.700;2023-12-04T05:59:38;6.57;;;4.80;;
81807;SDS011;71241;13.676;100.700;2023-12-04T06:02:08;6.90;;;4.68;;
81807;SDS011;71241;13.676;100.700;2023-12-04T06:04:39;5.63;;;4.63;;
81807;SDS011;71241;13.676;100.700;2023-12-04T06:07:09;6.97;;;5.10;;
81807;SDS011;71241;13.676;100.700;2023-12-04T06:09:42;4.95;;;4.15;;
81807;SDS011;71241;13.676;100.700;2023-12-04T06:12:15;4.85;;;4.22;;
81807;SDS011;71241;13.676;100.700;2023-12-04T06:14:45;5.13;;;3.83;;
81807;SDS011;71241;13.676;100.700;2023-12-04T06:17:15;5.80;;;5.40;;
81807;SDS011;71241;13.676;100.700;2023-12-04T06:19:46;4.97;;;4.38;;
81807;SDS011;71241;13.676;100.700;2023-12-04T06:22:17;5.78;;;5.28;;
81807;SDS011;71241;13.676;100.700;2023-12-04T06:24:49;6.10;;;5.60;;
81807;SDS011;71241;13.676;100.700;2023-12-04T06:27:22;5.90;;;4.75;;
81807;SDS011;71241;13.676;100.700;2023-12-04T06:29:54;5.63;;;4.50;;
81807;SDS011;71241;13.676;100.700;2023-12-04T06:32:25;5.15;;;4.40;;
81807;SDS011;71241;13.676;100.700;2023-12-04T06:34:59;5.32;;;4.35;;
81807;SDS011;71241;13.676;100.700;2023-12-04T06:37:31;5.65;;;4.28;;
81807;SDS011;71241;13.676;100.700;2023-12-04T06:40:03;7.43;;;4.47;;
81807;SDS011;71241;13.676;100.700;2023-12-04T06:42:41;6.55;;;5.10;;
81807;SDS011;71241;13.676;100.700;2023-12-04T06:45:12;5.93;;;4.38;;
81807;SDS011;71241;13.676;100.700;2023-12-04T06:47:44;6.32;;;5.38;;
81807;SDS011;71241;13.676;100.700;2023-12-04T06:50:15;6.57;;;4.85;;
81807;SDS011;71241;13.676;100.700;2023-12-04T06:52:46;6.43;;;4.80;;
81807;SDS011;71241;13.676;100.700;2023-12-04T06:55:16;6.80;;;5.10;;
81807;SDS011;71241;13.676;100.700;2023-12-04T06:57:48;6.82;;;4.65;;
81807;SDS011;71241;13.676;100.700;2023-12-04T07:00:19;6.80;;;4.95;;
81807;SDS011;71241;13.676;100.700;2023-12-04T07:02:50;8.02;;;5.13;;
81807;SDS011;71241;13.676;100.700;2023-12-04T07:05:20;6.03;;;4.30;;
81807;SDS011;71241;13.676;100.700;2023-12-04T07:07:51;4.45;;;3.95;;
81807;SDS011;71241;13.676;100.700;2023-12-04T07:10:21;6.28;;;4.65;;
81807;SDS011;71241;13.676;100.700;2023-12-04T07:12:54;5.90;;;4.20;;
81807;SDS011;71241;13.676;100.700;2023-12-04T07:15:25;7.35;;;4.95;;
81807;SDS011;71241;13.676;100.700;2023-12-04T07:17:56;5.80;;;3.35;;
81807;SDS011;71241;13.676;100.700;2023-12-04T07:20:26;5.40;;;4.05;;
81807;SDS011;71241;13.676;100.700;2023-12-04T07:22:57;4.75;;;3.75;;
81807;SDS011;71241;13.676;100.700;2023-12-04T07:25:28;4.13;;;3.50;;
81807;SDS011;71241;13.676;100.700;2023-12-04T07:28:00;6.88;;;4.07;;
81807;SDS011;71241;13.676;100.700;2023-12-04T07:30:30;5.90;;;4.10;;
81807;SDS011;71241;13.676;100.700;2023-12-04T07:33:01;4.47;;;3.92;;
81807;SDS011;71241;13.676;100.700;2023-12-04T07:35:34;5.40;;;4.22;;
81807;SDS011;71241;13.676;100.700;2023-12-04T07:38:05;4.50;;;3.85;;
81807;SDS011;71241;13.676;100.700;2023-12-04T07:40:36;4.68;;;3.80;;
81807;SDS011;71241;13.676;100.700;2023-12-04T07:43:09;5.75;;;3.83;;
81807;SDS011;71241;13.676;100.700;2023-12-04T07:45:39;9.98;;;9.38;;
81807;SDS011;71241;13.676;100.700;2023-12-04T07:48:11;6.10;;;3.85;;
81807;SDS011;71241;13.676;100.700;2023-12-04T07:50:42;5.13;;;3.65;;
81807;SDS011;71241;13.676;100.700;2023-12-04T07:53:12;4.72;;;3.95;;
81807;SDS011;71241;13.676;100.700;2023-12-04T07:55:43;4.07;;;3.70;;
81807;SDS011;71241;13.676;100.700;2023-12-04T07:58:17;4.05;;;3.65;;
81807;SDS011;71241;13.676;100.700;2023-12-04T08:00:48;4.55;;;3.83;;
81807;SDS011;71241;13.676;100.700;2023-12-04T08:03:19;7.00;;;4.28;;
81807;SDS011;71241;13.676;100.700;2023-12-04T08:05:49;4.43;;;3.30;;
81807;SDS011;71241;13.676;100.700;2023-12-04T08:08:20;4.35;;;3.50;;
81807;SDS011;71241;13.676;100.700;2023-12-04T08:10:51;5.72;;;3.55;;
81807;SDS011;71241;13.676;100.700;2023-12-04T08:13:24;3.85;;;3.55;;
81807;SDS011;71241;13.676;100.700;2023-12-04T08:15:54;5.05;;;4.30;;
81807;SDS011;71241;13.676;100.700;2023-12-04T08:18:25;3.80;;;3.50;;
81807;SDS011;71241;13.676;100.700;2023-12-04T08:20:55;4.63;;;4.10;;
81807;SDS011;71241;13.676;100.700;2023-12-04T08:23:26;6.20;;;4.10;;
81807;SDS011;71241;13.676;100.700;2023-12-04T08:25:57;4.53;;;4.13;;
81807;SDS011;71241;13.676;100.700;2023-12-04T08:28:32;7.57;;;4.32;;
81807;SDS011;71241;13.676;100.700;2023-12-04T08:31:04;5.90;;;4.35;;
81807;SDS011;71241;13.676;100.700;2023-12-04T08:33:37;5.45;;;4.93;;
81807;SDS011;71241;13.676;100.700;2023-12-04T08:36:08;5.38;;;4.20;;
81807;SDS011;71241;13.676;100.700;2023-12-04T08:38:41;4.53;;;3.90;;
81807;SDS011;71241;13.676;100.700;2023-12-04T08:41:12;6.93;;;4.47;;
81807;SDS011;71241;13.676;100.700;2023-12-04T08:43:44;6.72;;;4.35;;
81807;SDS011;71241;13.676;100.700;2023-12-04T08:46:14;9.15;;;4.20;;
81807;SDS011;71241;13.676;100.700;2023-12-04T08:48:45;4.70;;;3.53;;
81807;SDS011;71241;13.676;100.700;2023-12-04T08:51:16;6.82;;;4.30;;
81807;SDS011;71241;13.676;100.700;2023-12-04T08:53:47;5.28;;;3.80;;
81807;SDS011;71241;13.676;100.700;2023-12-04T08:56:18;4.30;;;3.83;;
81807;SDS011;71241;13.676;100.700;2023-12-04T08:58:59;4.75;;;4.20;;
81807;SDS011;71241;13.676;100.700;2023-12-04T09:01:30;5.43;;;3.78;;
81807;SDS011;71241;13.676;100.700;2023-12-04T09:04:01;4.55;;;4.05;;
81807;SDS011;71241;13.676;100.700;2023-12-04T09:06:32;5.03;;;3.63;;
81807;SDS011;71241;13.676;100.700;2023-12-04T09:09:11;6.60;;;3.83;;
81807;SDS011;71241;13.676;100.700;2023-12-04T09:11:44;4.07;;;3.67;;
81807;SDS011;71241;13.676;100.700;2023-12-04T09:14:16;5.65;;;4.13;;
81807;SDS011;71241;13.676;100.700;2023-12-04T09:16:46;5.18;;;4.60;;
81807;SDS011;71241;13.676;100.700;2023-12-04T09:19:17;4.35;;;3.60;;
81807;SDS011;71241;13.676;100.700;2023-12-04T09:21:48;4.35;;;3.95;;
81807;SDS011;71241;13.676;100.700;2023-12-04T09:24:34;3.70;;;3.38;;
81807;SDS011;71241;13.676;100.700;2023-12-04T09:27:05;4.72;;;4.20;;
81807;SDS011;71241;13.676;100.700;2023-12-04T09:29:37;5.38;;;3.50;;
81807;SDS011;71241;13.676;100.700;2023-12-04T09:32:08;5.32;;;4.03;;
81807;SDS011;71241;13.676;100.700;2023-12-04T09:34:39;5.72;;;4.55;;
81807;SDS011;71241;13.676;100.700;2023-12-04T09:37:09;4.43;;;4.00;;
81807;SDS011;71241;13.676;100.700;2023-12-04T09:39:41;5.53;;;5.00;;
81807;SDS011;71241;13.676;100.700;2023-12-04T09:42:12;7.43;;;6.28;;
81807;SDS011;71241;13.676;100.700;2023-12-04T09:44:45;5.40;;;4.10;;
81807;SDS011;71241;13.676;100.700;2023-12-04T09:47:18;7.38;;;4.93;;
81807;SDS011;71241;13.676;100.700;2023-12-04T09:49:49;5.13;;;4.20;;
81807;SDS011;71241;13.676;100.700;2023-12-04T09:52:24;10.88;;;10.13;;
81807;SDS011;71241;13.676;100.700;2023-12-04T09:54:57;8.95;;;8.18;;
81807;SDS011;71241;13.676;100.700;2023-12-04T09:57:28;8.55;;;7.85;;
81807;SDS011;71241;13.676;100.700;2023-12-04T10:00:02;9.05;;;8.38;;
81807;SDS011;71241;13.676;100.700;2023-12-04T10:02:35;9.02;;;8.43;;
81807;SDS011;71241;13.676;100.700;2023-12-04T10:05:06;8.85;;;8.23;;
81807;SDS011;71241;13.676;100.700;2023-12-04T10:07:37;10.32;;;9.65;;
81807;SDS011;71241;13.676;100.700;2023-12-04T10:10:10;12.98;;;12.25;;
81807;SDS011;71241;13.676;100.700;2023-12-04T10:12:41;7.88;;;6.80;;
81807;SDS011;71241;13.676;100.700;2023-12-04T10:15:14;9.88;;;6.22;;
81807;SDS011;71241;13.676;100.700;2023-12-04T10:17:45;7.05;;;6.15;;
81807;SDS011;71241;13.676;100.700;2023-12-04T10:20:16;7.10;;;6.28;;
81807;SDS011;71241;13.676;100.700;2023-12-04T10:22:53;8.45;;;5.57;;
81807;SDS011;71241;13.676;100.700;2023-12-04T10:25:25;8.35;;;5.22;;
81807;SDS011;71241;13.676;100.700;2023-12-04T10:28:07;5.88;;;5.28;;
81807;SDS011;71241;13.676;100.700;2023-12-04T10:30:40;6.65;;;5.20;;
81807;SDS011;71241;13.676;100.700;2023-12-04T10:33:10;9.88;;;6.22;;
81807;SDS011;71241;13.676;100.700;2023-12-04T10:35:41;8.57;;;5.43;;
81807;SDS011;71241;13.676;100.700;2023-12-04T10:38:14;9.02;;;6.28;;
81807;SDS011;71241;13.676;100.700;2023-12-04T10:40:44;8.40;;;7.22;;
81807;SDS011;71241;13.676;100.700;2023-12-04T10:43:15;8.82;;;7.93;;
81807;SDS011;71241;13.676;100.700;2023-12-04T10:45:48;6.38;;;5.75;;
81807;SDS011;71241;13.676;100.700;2023-12-04T10:48:19;8.65;;;6.43;;
81807;SDS011;71241;13.676;100.700;2023-12-04T10:50:50;7.78;;;6.10;;
81807;SDS011;71241;13.676;100.700;2023-12-04T10:53:22;7.18;;;6.13;;
81807;SDS011;71241;13.676;100.700;2023-12-04T10:55:53;8.88;;;8.07;;
81807;SDS011;71241;13.676;100.700;2023-12-04T10:58:26;10.18;;;9.18;;
81807;SDS011;71241;13.676;100.700;2023-12-04T11:00:59;9.65;;;7.47;;
81807;SDS011;71241;13.676;100.700;2023-12-04T11:03:34;7.75;;;7.05;;
81807;SDS011;71241;13.676;100.700;2023-12-04T11:06:08;8.00;;;6.13;;
81807;SDS011;71241;13.676;100.700;2023-12-04T11:08:42;9.23;;;7.85;;
81807;SDS011;71241;13.676;100.700;2023-12-04T11:11:12;10.00;;;7.03;;
81807;SDS011;71241;13.676;100.700;2023-12-04T11:13:45;8.40;;;6.57;;
81807;SDS011;71241;13.676;100.700;2023-12-04T11:16:20;9.38;;;6.60;;
81807;SDS011;71241;13.676;100.700;2023-12-04T11:18:59;9.38;;;8.40;;
81807;SDS011;71241;13.676;100.700;2023-12-04T11:21:33;9.80;;;5.95;;
81807;SDS011;71241;13.676;100.700;2023-12-04T11:24:04;7.25;;;6.55;;
81807;SDS011;71241;13.676;100.700;2023-12-04T11:26:35;7.55;;;6.43;;
81807;SDS011;71241;13.676;100.700;2023-12-04T11:29:06;7.22;;;6.63;;
81807;SDS011;71241;13.676;100.700;2023-12-04T11:31:39;11.18;;;6.72;;
81807;SDS011;71241;13.676;100.700;2023-12-04T11:34:10;7.47;;;6.72;;
81807;SDS011;71241;13.676;100.700;2023-12-04T11:36:40;9.05;;;7.85;;
81807;SDS011;71241;13.676;100.700;2023-12-04T11:39:14;11.23;;;7.85;;
81807;SDS011;71241;13.676;100.700;2023-12-04T11:41:45;9.73;;;7.93;;
81807;SDS011;71241;13.676;100.700;2023-12-04T11:44:16;8.63;;;7.57;;
81807;SDS011;71241;13.676;100.700;2023-12-04T11:47:02;10.77;;;9.38;;
81807;SDS011;71241;13.676;100.700;2023-12-04T11:49:34;11.35;;;10.07;;
81807;SDS011;71241;13.676;100.700;2023-12-04T11:52:05;10.95;;;6.95;;
81807;SDS011;71241;13.676;100.700;2023-12-04T11:57:26;7.70;;;6.95;;
81807;SDS011;71241;13.676;100.700;2023-12-04T12:00:08;9.75;;;8.70;;
81807;SDS011;71241;13.676;100.700;2023-12-04T12:02:46;10.00;;;7.00;;
81807;SDS011;71241;13.676;100.700;2023-12-04T12:05:38;9.27;;;7.70;;
81807;SDS011;71241;13.676;100.700;2023-12-04T12:08:10;8.57;;;6.72;;
81807;SDS011;71241;13.676;100.700;2023-12-04T12:10:41;9.20;;;7.28;;
81807;SDS011;71241;13.676;100.700;2023-12-04T12:13:12;8.75;;;6.95;;
81807;SDS011;71241;13.676;100.700;2023-12-04T12:15:46;8.75;;;6.97;;
81807;SDS011;71241;13.676;100.700;2023-12-04T12:18:23;9.70;;;7.65;;
81807;SDS011;71241;13.676;100.700;2023-12-04T12:20:54;9.13;;;8.13;;
81807;SDS011;71241;13.676;100.700;2023-12-04T12:23:26;8.20;;;7.38;;
81807;SDS011;71241;13.676;100.700;2023-12-04T12:25:56;10.02;;;7.03;;
81807;SDS011;71241;13.676;100.700;2023-12-04T12:28:30;11.32;;;8.43;;
81807;SDS011;71241;13.676;100.700;2023-12-04T12:31:02;10.27;;;8.20;;
81807;SDS011;71241;13.676;100.700;2023-12-04T12:33:34;9.02;;;7.07;;
81807;SDS011;71241;13.676;100.700;2023-12-04T12:38:35;10.13;;;7.50;;
81807;SDS011;71241;13.676;100.700;2023-12-04T12:41:08;9.90;;;8.57;;
81807;SDS011;71241;13.676;100.700;2023-12-04T12:43:41;9.55;;;7.88;;
81807;SDS011;71241;13.676;100.700;2023-12-04T12:46:12;9.40;;;7.28;;
81807;SDS011;71241;13.676;100.700;2023-12-04T12:48:44;16.67;;;13.00;;
81807;SDS011;71241;13.676;100.700;2023-12-04T12:51:16;10.07;;;9.07;;
81807;SDS011;71241;13.676;100.700;2023-12-04T12:53:48;9.85;;;5.82;;
81807;SDS011;71241;13.676;100.700;2023-12-04T12:56:19;8.35;;;6.68;;
81807;SDS011;71241;13.676;100.700;2023-12-04T12:58:50;11.18;;;7.65;;
81807;SDS011;71241;13.676;100.700;2023-12-04T13:01:23;8.15;;;7.22;;
81807;SDS011;71241;13.676;100.700;2023-12-04T13:03:58;8.27;;;6.43;;
81807;SDS011;71241;13.676;100.700;2023-12-04T13:06:29;8.98;;;5.38;;
81807;SDS011;71241;13.676;100.700;2023-12-04T13:09:00;8.60;;;5.45;;
81807;SDS011;71241;13.676;100.700;2023-12-04T13:11:32;8.25;;;5.20;;
81807;SDS011;71241;13.676;100.700;2023-12-04T13:14:02;11.07;;;5.97;;
81807;SDS011;71241;13.676;100.700;2023-12-04T13:16:33;12.30;;;6.90;;
81807;SDS011;71241;13.676;100.700;2023-12-04T13:19:06;8.57;;;5.57;;
81807;SDS011;71241;13.676;100.700;2023-12-04T13:21:37;10.18;;;6.03;;
81807;SDS011;71241;13.676;100.700;2023-12-04T13:24:08;8.57;;;4.53;;
81807;SDS011;71241;13.676;100.700;2023-12-04T13:26:39;8.60;;;5.57;;
81807;SDS011;71241;13.676;100.700;2023-12-04T13:29:10;9.10;;;5.68;;
81807;SDS011;71241;13.676;100.700;2023-12-04T13:31:48;11.32;;;6.30;;
81807;SDS011;71241;13.676;100.700;2023-12-04T13:34:20;8.55;;;5.30;;
81807;SDS011;71241;13.676;100.700;2023-12-04T13:39:21;7.30;;;5.40;;
81807;SDS011;71241;13.676;100.700;2023-12-04T13:42:05;13.00;;;6.32;;
81807;SDS011;71241;13.676;100.700;2023-12-04T13:44:48;9.63;;;5.13;;
81807;SDS011;71241;13.676;100.700;2023-12-04T13:47:21;7.75;;;5.63;;
81807;SDS011;71241;13.676;100.700;2023-12-04T13:49:53;10.38;;;6.50;;
81807;SDS011;71241;13.676;100.700;2023-12-04T13:52:33;7.20;;;6.32;;
81807;SDS011;71241;13.676;100.700;2023-12-04T13:55:04;9.55;;;6.88;;
81807;SDS011;71241;13.676;100.700;2023-12-04T13:57:49;10.23;;;6.15;;
81807;SDS011;71241;13.676;100.700;2023-12-04T14:00:41;9.77;;;8.77;;
81807;SDS011;71241;13.676;100.700;2023-12-04T14:03:13;10.65;;;6.05;;
81807;SDS011;71241;13.676;100.700;2023-12-04T14:05:45;10.75;;;6.63;;
81807;SDS011;71241;13.676;100.700;2023-12-04T14:08:17;12.40;;;7.57;;
81807;SDS011;71241;13.676;100.700;2023-12-04T14:10:48;11.32;;;9.02;;
81807;SDS011;71241;13.676;100.700;2023-12-04T14:13:18;12.60;;;9.07;;
81807;SDS011;71241;13.676;100.700;2023-12-04T14:15:49;15.68;;;10.20;;
81807;SDS011;71241;13.676;100.700;2023-12-04T14:18:20;15.07;;;11.90;;
81807;SDS011;71241;13.676;100.700;2023-12-04T14:20:52;13.48;;;9.88;;
81807;SDS011;71241;13.676;100.700;2023-12-04T14:23:23;14.85;;;10.30;;
81807;SDS011;71241;13.676;100.700;2023-12-04T14:25:55;14.60;;;10.88;;
81807;SDS011;71241;13.676;100.700;2023-12-04T14:28:25;15.75;;;13.23;;
81807;SDS011;71241;13.676;100.700;2023-12-04T14:31:08;15.35;;;12.25;;
81807;SDS011;71241;13.676;100.700;2023-12-04T14:33:40;18.30;;;13.35;;
81807;SDS011;71241;13.676;100.700;2023-12-04T14:36:16;18.58;;;13.43;;
81807;SDS011;71241;13.676;100.700;2023-12-04T14:38:48;17.90;;;14.57;;
81807;SDS011;71241;13.676;100.700;2023-12-04T14:43:51;21.08;;;13.38;;
81807;SDS011;71241;13.676;100.700;2023-12-04T14:46:23;17.05;;;13.68;;
81807;SDS011;71241;13.676;100.700;2023-12-04T14:48:54;21.33;;;14.50;;
81807;SDS011;71241;13.676;100.700;2023-12-04T14:51:27;17.77;;;14.48;;
81807;SDS011;71241;13.676;100.700;2023-12-04T14:53:57;18.48;;;14.15;;
81807;SDS011;71241;13.676;100.700;2023-12-04T14:56:41;19.80;;;15.00;;
81807;SDS011;71241;13.676;100.700;2023-12-04T14:59:32;16.73;;;13.70;;
81807;SDS011;71241;13.676;100.700;2023-12-04T15:02:14;16.85;;;14.40;;